Time;durP1;ratioP1;P1;durP2;ratioP2;P2;SDS_P1;SDS_P2;PMS_P1;PMS_P2;Temp;Humidity;BMP_temperature;BMP_pressure;BME280_temperature;BME280_humidity;BME280_pressure;Samples;Min_cycle;Max_cycle;Signal;HPM_P1;HPM_P2
2023/04/04 00:01:30;;;;;;;;;;;;;;;;;;2207776;67;1576;-17
2023/04/04 00:04:01;;;;;;;;;;;;;;;;;;2211104;59;1941;-17
2023/04/04 00:06:31;;;;;;;;;;;;;;;;;;2211272;67;1689;-17
2023/04/04 00:09:01;;;;;;;;;;;;;;;;;;2210948;67;1404;-17
2023/04/04 00:11:32;;;;;;;;;;;;;;;;;;2211370;59;2022;-17
2023/04/04 00:14:04;;;;;;;;;;;;;;;;;;2210904;59;2317;-18
2023/04/04 00:16:35;;;;;;;;;;;;;;;;;;2211619;67;1776;-17
2023/04/04 00:19:05;;;;;;;;;;;;;;;;;;2207053;59;2184;-17
2023/04/04 00:21:35;;;;;;;;;;;;;;;;;;2208278;59;1705;-17
2023/04/04 00:24:05;;;;;;;;;;;;;;;;;;2210747;59;1929;-17
2023/04/04 00:26:36;;;;;;;;;;;;;;;;;;2210590;67;1311;-17
2023/04/04 00:29:06;;;;;;;;;;;;;;;;;;2211672;67;2493;-17
2023/04/04 00:31:37;;;;;;;;;;;;;;;;;;2212114;67;1404;-17
2023/04/04 00:34:07;;;;;;;;;;;;;;;;;;2211183;67;1819;-17
2023/04/04 00:36:40;;;;;;;;;;;;;;;;;;2211617;67;1820;-17
2023/04/04 00:39:10;;;;;;;;;;;;;;;;;;2211720;67;1748;-17
2023/04/04 00:41:41;;;;;;;;;;;;;;;;;;2211616;67;1636;-17
2023/04/04 00:44:11;;;;;;;;;;;;;;;;;;2211036;67;1991;-16
2023/04/04 00:46:41;;;;;;;;;;;;;;;;;;2211175;67;1758;-17
2023/04/04 00:49:11;;;;;;;;;;;;;;;;;;2210732;67;1447;-17
2023/04/04 00:51:42;;;;;;;;;;;;;;;;;;2211017;59;1907;-17
2023/04/04 00:54:12;;;;;;;;;;;;;;;;;;2210917;67;1253;-17
2023/04/04 00:56:42;;;;;;;;;;;;;;;;;;2206630;59;2143;-17
2023/04/04 00:59:13;;;;;;;;;;;;;;;;;;2211152;66;1418;-17
2023/04/04 01:01:46;;;;;;;;;;;;;;;;;;2211248;67;1670;-17
2023/04/04 01:04:17;;;;;;;;;;;;;;;;;;2208492;67;1952;-17
2023/04/04 01:06:48;;;;;;;;;;;;;;;;;;2211378;67;2265;-17
2023/04/04 01:09:19;;;;;;;;;;;;;;;;;;2211149;59;1421;-17
2023/04/04 01:11:49;;;;;;;;;;;;;;;;;;2211306;67;1666;-17
2023/04/04 01:14:20;;;;;;;;;;;;;;;;;;2211110;59;1728;-17
2023/04/04 01:16:50;;;;;;;;;;;;;;;;;;2211028;67;1936;-17
2023/04/04 01:19:25;;;;;;;;;;;;;;;;;;2211355;67;1841;-17
2023/04/04 01:21:55;;;;;;;;;;;;;;;;;;2205286;59;1551;-17
2023/04/04 01:24:28;;;;;;;;;;;;;;;;;;2210232;59;1941;-17
2023/04/04 01:26:59;;;;;;;;;;;;;;;;;;2211129;67;1732;-17
2023/04/04 01:29:29;;;;;;;;;;;;;;;;;;2211279;67;1804;-17
2023/04/04 01:32:03;;;;;;;;;;;;;;;;;;2211031;67;1337;-17
2023/04/04 01:34:33;;;;;;;;;;;;;;;;;;2207408;59;1944;-18
2023/04/04 01:37:15;;;;;;;;;;;;;;;;;;2211070;59;1731;-17
2023/04/04 01:39:51;;;;;;;;;;;;;;;;;;2211610;67;1803;-17
2023/04/04 01:42:23;;;;;;;;;;;;;;;;;;2211676;59;1668;-18
2023/04/04 01:44:56;;;;;;;;;;;;;;;;;;2208321;59;1979;-17
2023/04/04 01:47:28;;;;;;;;;;;;;;;;;;2211922;67;1850;-17
2023/04/04 01:49:58;;;;;;;;;;;;;;;;;;2211466;59;1985;-17
2023/04/04 01:52:28;;;;;;;;;;;;;;;;;;2211939;67;1337;-17
2023/04/04 01:54:58;;;;;;;;;;;;;;;;;;2216384;53;1867;-24
2023/04/04 01:57:29;;;;;;;;;;;;;;;;;;2209232;67;1084;-24
2023/04/04 02:00:00;;;;;;;;;;;;;;;;;;2208746;59;2229;-24
2023/04/04 02:02:30;;;;;;;;;;;;;;;;;;2208926;67;1368;-24
2023/04/04 02:05:00;;;;;;;;;;;;;;;;;;2207876;67;2001;-24
2023/04/04 02:07:30;;;;;;;;;;;;;;;;;;2207896;59;1392;-24
2023/04/04 02:10:01;;;;;;;;;;;;;;;;;;2208115;59;1429;-24
2023/04/04 02:12:32;;;;;;;;;;;;;;;;;;2208255;67;1296;-24
2023/04/04 02:15:02;;;;;;;;;;;;;;;;;;2204539;67;1689;-24
2023/04/04 02:17:33;;;;;;;;;;;;;;;;;;2208068;67;1868;-24
2023/04/04 02:20:04;;;;;;;;;;;;;;;;;;2207004;59;3163;-24
2023/04/04 02:22:34;;;;;;;;;;;;;;;;;;2204285;59;2572;-24
2023/04/04 02:25:05;;;;;;;;;;;;;;;;;;2207968;67;2215;-24
2023/04/04 02:27:36;;;;;;;;;;;;;;;;;;2201213;67;1880;-24
2023/04/04 02:30:06;;;;;;;;;;;;;;;;;;2204587;67;1335;-24
2023/04/04 02:32:37;;;;;;;;;;;;;;;;;;2203693;67;1637;-24
2023/04/04 02:35:07;;;;;;;;;;;;;;;;;;2207516;67;1345;-24
2023/04/04 02:37:38;;;;;;;;;;;;;;;;;;2207344;59;1881;-24
2023/04/04 02:40:09;;;;;;;;;;;;;;;;;;2207910;67;1287;-24
2023/04/04 02:42:43;;;;;;;;;;;;;;;;;;2208037;67;1727;-24
2023/04/04 02:45:13;;;;;;;;;;;;;;;;;;2207887;67;1946;-24
2023/04/04 02:47:48;;;;;;;;;;;;;;;;;;2206932;67;1750;-24
2023/04/04 02:50:19;;;;;;;;;;;;;;;;;;2204229;59;1394;-24
2023/04/04 02:52:49;;;;;;;;;;;;;;;;;;2207130;67;1963;-24
2023/04/04 02:55:19;;;;;;;;;;;;;;;;;;2206029;59;1695;-24
2023/04/04 02:57:51;;;;;;;;;;;;;;;;;;2211522;67;1162;-24
2023/04/04 03:00:21;;;;;;;;;;;;;;;;;;2208043;67;1453;-24
2023/04/04 03:02:52;;;;;;;;;;;;;;;;;;2211418;67;1530;-24
2023/04/04 03:05:24;;;;;;;;;;;;;;;;;;2208356;66;1928;-24
2023/04/04 03:07:55;;;;;;;;;;;;;;;;;;2211331;66;1782;-24
2023/04/04 03:10:26;;;;;;;;;;;;;;;;;;2207805;59;1868;-24
2023/04/04 03:12:56;;;;;;;;;;;;;;;;;;2210526;67;1373;-24
2023/04/04 03:15:27;;;;;;;;;;;;;;;;;;2211394;67;1371;-24
2023/04/04 03:17:58;;;;;;;;;;;;;;;;;;2211089;67;1695;-24
2023/04/04 03:20:30;;;;;;;;;;;;;;;;;;2211451;67;1424;-24
2023/04/04 03:23:00;;;;;;;;;;;;;;;;;;2205075;67;1582;-24
2023/04/04 03:25:31;;;;;;;;;;;;;;;;;;2211269;59;1939;-24
2023/04/04 03:28:11;;;;;;;;;;;;;;;;;;2210343;67;1292;-24
2023/04/04 03:30:42;;;;;;;;;;;;;;;;;;2210684;59;1709;-24
2023/04/04 03:33:12;;;;;;;;;;;;;;;;;;2208112;59;1412;-24
2023/04/04 03:35:42;;;;;;;;;;;;;;;;;;2208101;67;1792;-24
2023/04/04 03:38:12;;;;;;;;;;;;;;;;;;2208681;67;1391;-24
2023/04/04 03:40:43;;;;;;;;;;;;;;;;;;2212071;66;1734;-24
2023/04/04 03:43:13;;;;;;;;;;;;;;;;;;2212076;66;1760;-24
2023/04/04 03:45:43;;;;;;;;;;;;;;;;;;2211386;66;1933;-24
2023/04/04 03:48:13;;;;;;;;;;;;;;;;;;2210615;59;2161;-24
2023/04/04 03:50:44;;;;;;;;;;;;;;;;;;2211301;59;1957;-24
2023/04/04 03:53:14;;;;;;;;;;;;;;;;;;2207995;59;3046;-24
2023/04/04 03:55:44;;;;;;;;;;;;;;;;;;2211341;59;1440;-24
2023/04/04 03:58:15;;;;;;;;;;;;;;;;;;2210919;59;2209;-24
2023/04/04 04:00:45;;;;;;;;;;;;;;;;;;2211423;66;1695;-24
2023/04/04 04:03:15;;;;;;;;;;;;;;;;;;2209546;59;2273;-24
2023/04/04 04:05:46;;;;;;;;;;;;;;;;;;2211443;66;2326;-24
2023/04/04 04:08:16;;;;;;;;;;;;;;;;;;2210491;59;2186;-24
2023/04/04 04:10:46;;;;;;;;;;;;;;;;;;2208107;59;2269;-24
2023/04/04 04:13:17;;;;;;;;;;;;;;;;;;2208403;67;1253;-24
2023/04/04 04:15:48;;;;;;;;;;;;;;;;;;2210322;59;2105;-24
2023/04/04 04:18:18;;;;;;;;;;;;;;;;;;2210404;59;2366;-24
2023/04/04 04:20:48;;;;;;;;;;;;;;;;;;2208981;59;2726;-24
2023/04/04 04:23:18;;;;;;;;;;;;;;;;;;2209866;59;2126;-24
2023/04/04 04:25:48;;;;;;;;;;;;;;;;;;2210338;66;2001;-24
2023/04/04 04:28:19;;;;;;;;;;;;;;;;;;2211087;59;1232;-24
2023/04/04 04:30:50;;;;;;;;;;;;;;;;;;2210897;67;1420;-24
2023/04/04 04:33:20;;;;;;;;;;;;;;;;;;2210910;67;1352;-24
2023/04/04 04:35:50;;;;;;;;;;;;;;;;;;2210673;67;1454;-24
2023/04/04 04:38:20;;;;;;;;;;;;;;;;;;2210915;60;1496;-24
2023/04/04 04:40:54;;;;;;;;;;;;;;;;;;2210195;67;1550;-24
2023/04/04 04:43:24;;;;;;;;;;;;;;;;;;2211285;59;1142;-24
2023/04/04 04:45:55;;;;;;;;;;;;;;;;;;2210789;67;2035;-24
2023/04/04 04:48:25;;;;;;;;;;;;;;;;;;2210481;67;1747;-24
2023/04/04 04:50:55;;;;;;;;;;;;;;;;;;2207955;59;1727;-24
2023/04/04 04:53:26;;;;;;;;;;;;;;;;;;2211328;59;1155;-24
2023/04/04 04:55:56;;;;;;;;;;;;;;;;;;2211296;59;1592;-24
2023/04/04 04:58:26;;;;;;;;;;;;;;;;;;2210732;67;1157;-24
2023/04/04 05:00:56;;;;;;;;;;;;;;;;;;2211533;67;1144;-24
2023/04/04 05:03:27;;;;;;;;;;;;;;;;;;2208115;59;2007;-24
2023/04/04 05:05:57;;;;;;;;;;;;;;;;;;2211506;67;1927;-24
2023/04/04 05:08:27;;;;;;;;;;;;;;;;;;2207916;59;1833;-24
2023/04/04 05:10:57;;;;;;;;;;;;;;;;;;2212613;59;1750;-24
2023/04/04 05:13:28;;;;;;;;;;;;;;;;;;2208400;67;1760;-24
2023/04/04 05:15:58;;;;;;;;;;;;;;;;;;2210628;59;1381;-24
2023/04/04 05:18:28;;;;;;;;;;;;;;;;;;2212072;66;1167;-24
2023/04/04 05:20:58;;;;;;;;;;;;;;;;;;2211529;67;1148;-24
2023/04/04 05:23:28;;;;;;;;;;;;;;;;;;2211813;59;1644;-24
2023/04/04 05:25:59;;;;;;;;;;;;;;;;;;2212071;67;1945;-24
2023/04/04 05:28:29;;;;;;;;;;;;;;;;;;2211497;59;1820;-24
2023/04/04 05:30:59;;;;;;;;;;;;;;;;;;2207771;67;1392;-24
2023/04/04 05:33:29;;;;;;;;;;;;;;;;;;2211559;67;1259;-24
2023/04/04 05:36:00;;;;;;;;;;;;;;;;;;2211215;59;2633;-24
2023/04/04 05:38:30;;;;;;;;;;;;;;;;;;2208755;59;1676;-24
2023/04/04 05:41:00;;;;;;;;;;;;;;;;;;2211714;66;1753;-24
2023/04/04 05:43:30;;;;;;;;;;;;;;;;;;2212079;67;1431;-24
2023/04/04 05:46:00;;;;;;;;;;;;;;;;;;2212149;67;1958;-24
2023/04/04 05:48:33;;;;;;;;;;;;;;;;;;2211515;67;1636;-24
2023/04/04 05:51:04;;;;;;;;;;;;;;;;;;2211655;59;1667;-24
2023/04/04 05:53:34;;;;;;;;;;;;;;;;;;2211448;66;1168;-24
2023/04/04 05:56:04;;;;;;;;;;;;;;;;;;2209066;59;1412;-24
2023/04/04 05:58:35;;;;;;;;;;;;;;;;;;2208332;67;1378;-24
2023/04/04 06:01:07;;;;;;;;;;;;;;;;;;2208257;67;1438;-24
2023/04/04 06:03:40;;;;;;;;;;;;;;;;;;2208566;67;1651;-24
2023/04/04 06:06:11;;;;;;;;;;;;;;;;;;2208373;67;1994;-24
2023/04/04 06:08:41;;;;;;;;;;;;;;;;;;2208070;59;1794;-24
2023/04/04 06:11:11;;;;;;;;;;;;;;;;;;2207919;59;1352;-24
2023/04/04 06:13:41;;;;;;;;;;;;;;;;;;2207868;67;1204;-24
2023/04/04 06:16:12;;;;;;;;;;;;;;;;;;2207690;67;1228;-24
2023/04/04 06:18:42;;;;;;;;;;;;;;;;;;2207679;67;1837;-24
2023/04/04 06:21:12;;;;;;;;;;;;;;;;;;2207806;67;1859;-24
2023/04/04 06:23:42;;;;;;;;;;;;;;;;;;2207731;59;1379;-24
2023/04/04 06:26:13;;;;;;;;;;;;;;;;;;2205157;67;1940;-24
2023/04/04 06:28:48;;;;;;;;;;;;;;;;;;2207983;67;1419;-24
2023/04/04 06:31:18;;;;;;;;;;;;;;;;;;2208336;67;1944;-24
2023/04/04 06:33:48;;;;;;;;;;;;;;;;;;2208108;59;1705;-24
2023/04/04 06:36:19;;;;;;;;;;;;;;;;;;2208107;67;1642;-24
2023/04/04 06:38:50;;;;;;;;;;;;;;;;;;2205583;67;1861;-24
2023/04/04 06:41:20;;;;;;;;;;;;;;;;;;2207573;67;1600;-24
2023/04/04 06:43:51;;;;;;;;;;;;;;;;;;2208669;67;1424;-24
2023/04/04 06:46:21;;;;;;;;;;;;;;;;;;2209032;67;1979;-24
2023/04/04 06:48:51;;;;;;;;;;;;;;;;;;2206452;67;1718;-24
2023/04/04 06:51:22;;;;;;;;;;;;;;;;;;2208367;59;1612;-24
2023/04/04 06:53:52;;;;;;;;;;;;;;;;;;2207780;59;1373;-24
2023/04/04 06:56:22;;;;;;;;;;;;;;;;;;2214418;59;1214;-24
2023/04/04 06:58:53;;;;;;;;;;;;;;;;;;2215715;66;1272;-24
2023/04/04 07:01:23;;;;;;;;;;;;;;;;;;2215528;66;1709;-25
2023/04/04 07:03:53;;;;;;;;;;;;;;;;;;2216084;59;1362;-25
2023/04/04 07:06:25;;;;;;;;;;;;;;;;;;2214774;59;2103;-25
2023/04/04 07:08:55;;;;;;;;;;;;;;;;;;2215818;66;1323;-25
2023/04/04 07:11:26;;;;;;;;;;;;;;;;;;2215549;66;1846;-25
2023/04/04 07:13:56;;;;;;;;;;;;;;;;;;2215742;66;1166;-25
2023/04/04 07:16:27;;;;;;;;;;;;;;;;;;2216052;66;1401;-25
2023/04/04 07:18:57;;;;;;;;;;;;;;;;;;2215765;66;1819;-25
2023/04/04 07:21:27;;;;;;;;;;;;;;;;;;2215188;58;2256;-25
2023/04/04 07:23:59;;;;;;;;;;;;;;;;;;2215344;66;1437;-25
2023/04/04 07:26:29;;;;;;;;;;;;;;;;;;2213056;66;1974;-25
2023/04/04 07:28:59;;;;;;;;;;;;;;;;;;2216412;66;1371;-25
2023/04/04 07:31:29;;;;;;;;;;;;;;;;;;2215469;66;1764;-25
2023/04/04 07:34:00;;;;;;;;;;;;;;;;;;2216043;66;1294;-25
2023/04/04 07:36:30;;;;;;;;;;;;;;;;;;2212422;59;2295;-25
2023/04/04 07:39:00;;;;;;;;;;;;;;;;;;2214688;58;1826;-25
2023/04/04 07:41:30;;;;;;;;;;;;;;;;;;2215169;66;1491;-25
2023/04/04 07:44:01;;;;;;;;;;;;;;;;;;2215686;66;1184;-25
2023/04/04 07:46:31;;;;;;;;;;;;;;;;;;2214961;66;1982;-25
2023/04/04 07:49:01;;;;;;;;;;;;;;;;;;2215256;66;1341;-25
2023/04/04 07:51:31;;;;;;;;;;;;;;;;;;2215536;66;1533;-25
2023/04/04 07:54:02;;;;;;;;;;;;;;;;;;2215185;66;1660;-25
2023/04/04 07:56:32;;;;;;;;;;;;;;;;;;2215399;66;1667;-25
2023/04/04 07:59:02;;;;;;;;;;;;;;;;;;2215261;66;2007;-25
2023/04/04 08:01:32;;;;;;;;;;;;;;;;;;2212408;59;2183;-25
2023/04/04 08:04:04;;;;;;;;;;;;;;;;;;2215534;66;1542;-25
2023/04/04 08:06:35;;;;;;;;;;;;;;;;;;2215452;66;1937;-25
2023/04/04 08:09:05;;;;;;;;;;;;;;;;;;2215537;66;1458;-25
2023/04/04 08:11:36;;;;;;;;;;;;;;;;;;2215448;58;1697;-25
2023/04/04 08:14:10;;;;;;;;;;;;;;;;;;2212529;66;1676;-25
2023/04/04 08:16:40;;;;;;;;;;;;;;;;;;2212266;66;1425;-25
2023/04/04 08:19:15;;;;;;;;;;;;;;;;;;2216034;66;1891;-25
2023/04/04 08:21:45;;;;;;;;;;;;;;;;;;2213020;59;2263;-25
2023/04/04 08:24:15;;;;;;;;;;;;;;;;;;2214979;59;2165;-25
2023/04/04 08:26:46;;;;;;;;;;;;;;;;;;2213898;66;2171;-27
2023/04/04 08:29:16;;;;;;;;;;;;;;;;;;2214743;66;1761;-25
2023/04/04 08:31:49;;;;;;;;;;;;;;;;;;2215010;58;2084;-25
2023/04/04 08:34:19;;;;;;;;;;;;;;;;;;2215348;66;1671;-25
2023/04/04 08:36:50;;;;;;;;;;;;;;;;;;2210062;58;2320;-25
2023/04/04 08:39:20;;;;;;;;;;;;;;;;;;2214742;59;2199;-25
2023/04/04 08:41:56;;;;;;;;;;;;;;;;;;2212648;58;2330;-24
2023/04/04 08:44:27;;;;;;;;;;;;;;;;;;2215014;59;1935;-23
2023/04/04 08:47:02;;;;;;;;;;;;;;;;;;2216634;58;2069;-23
2023/04/04 08:49:34;;;;;;;;;;;;;;;;;;2212883;59;2007;-24
2023/04/04 08:52:06;;;;;;;;;;;;;;;;;;2216095;59;2119;-23
2023/04/04 08:54:37;;;;;;;;;;;;;;;;;;2216326;58;2610;-23
2023/04/04 08:57:08;;;;;;;;;;;;;;;;;;2215869;66;1187;-23
2023/04/04 08:59:38;;;;;;;;;;;;;;;;;;2215759;58;2152;-23
2023/04/04 09:02:08;;;;;;;;;;;;;;;;;;2213016;66;1715;-23
2023/04/04 09:04:40;;;;;;;;;;;;;;;;;;2215405;58;2163;-23
2023/04/04 09:07:11;;;;;;;;;;;;;;;;;;2215269;58;2247;-23
2023/04/04 09:09:44;;;;;;;;;;;;;;;;;;2214713;58;2620;-23
2023/04/04 09:12:15;;;;;;;;;;;;;;;;;;2215948;66;1344;-23
2023/04/04 09:14:46;;;;;;;;;;;;;;;;;;2215613;59;2060;-23
2023/04/04 09:17:17;;;;;;;;;;;;;;;;;;2215621;66;1923;-23
2023/04/04 09:19:47;;;;;;;;;;;;;;;;;;2212592;59;2065;-23
2023/04/04 09:22:18;;;;;;;;;;;;;;;;;;2211607;59;1899;-23
2023/04/04 09:24:50;;;;;;;;;;;;;;;;;;2212199;58;2837;-23
2023/04/04 09:27:20;;;;;;;;;;;;;;;;;;2213529;58;1721;-23
2023/04/04 09:29:51;;;;;;;;;;;;;;;;;;2215096;58;2257;-23
2023/04/04 09:32:23;;;;;;;;;;;;;;;;;;2213020;66;2129;-23
2023/04/04 09:34:54;;;;;;;;;;;;;;;;;;2214152;59;2295;-23
2023/04/04 09:37:24;;;;;;;;;;;;;;;;;;2215012;59;2352;-23
2023/04/04 09:39:54;;;;;;;;;;;;;;;;;;2214939;59;2678;-23
2023/04/04 09:42:25;;;;;;;;;;;;;;;;;;2211351;59;1854;-23
2023/04/04 09:44:55;;;;;;;;;;;;;;;;;;2209485;59;2219;-23
2023/04/04 09:47:26;;;;;;;;;;;;;;;;;;2215242;66;2181;-23
2023/04/04 09:49:57;;;;;;;;;;;;;;;;;;2211938;58;2008;-23
2023/04/04 09:52:30;;;;;;;;;;;;;;;;;;2214484;58;1701;-23
2023/04/04 09:55:02;;;;;;;;;;;;;;;;;;2213623;58;2246;-23
2023/04/04 09:57:33;;;;;;;;;;;;;;;;;;2214939;58;2086;-23
2023/04/04 10:00:10;;;;;;;;;;;;;;;;;;2213647;59;2117;-23
2023/04/04 10:02:45;;;;;;;;;;;;;;;;;;2214696;58;1984;-23
2023/04/04 10:05:16;;;;;;;;;;;;;;;;;;2214187;58;2169;-23
2023/04/04 10:07:47;;;;;;;;;;;;;;;;;;2215380;66;1439;-23
2023/04/04 10:10:18;;;;;;;;;;;;;;;;;;2215206;58;2205;-23
2023/04/04 10:12:51;;;;;;;;;;;;;;;;;;2215753;66;1221;-23
2023/04/04 10:15:21;;;;;;;;;;;;;;;;;;2215107;58;2060;-23
2023/04/04 10:17:52;;;;;;;;;;;;;;;;;;2214828;66;1356;-23
2023/04/04 10:20:23;;;;;;;;;;;;;;;;;;2211143;59;2209;-23
2023/04/04 10:22:53;;;;;;;;;;;;;;;;;;2214617;59;1615;-23
2023/04/04 10:25:24;;;;;;;;;;;;;;;;;;2214574;58;2279;-23
2023/04/04 10:27:57;;;;;;;;;;;;;;;;;;2216029;66;1411;-23
2023/04/04 10:30:27;;;;;;;;;;;;;;;;;;2214724;58;2213;-23
2023/04/04 10:33:05;;;;;;;;;;;;;;;;;;2212163;66;1686;-23
2023/04/04 10:35:36;;;;;;;;;;;;;;;;;;2214583;58;2354;-23
2023/04/04 10:38:07;;;;;;;;;;;;;;;;;;2213973;66;3043;-23
2023/04/04 10:40:39;;;;;;;;;;;;;;;;;;2212935;58;2757;-23
2023/04/04 10:43:13;;;;;;;;;;;;;;;;;;2215804;66;1171;-23
2023/04/04 10:45:44;;;;;;;;;;;;;;;;;;2215363;58;2062;-23
2023/04/04 10:48:14;;;;;;;;;;;;;;;;;;2212336;59;1550;-23
2023/04/04 10:50:46;;;;;;;;;;;;;;;;;;2215116;59;2120;-23
2023/04/04 10:53:16;;;;;;;;;;;;;;;;;;2214745;66;1780;-23
2023/04/04 10:55:47;;;;;;;;;;;;;;;;;;2214906;59;2247;-23
2023/04/04 10:58:17;;;;;;;;;;;;;;;;;;2214947;58;2196;-23
2023/04/04 11:00:49;;;;;;;;;;;;;;;;;;2213051;58;2218;-23
2023/04/04 11:03:19;;;;;;;;;;;;;;;;;;2215689;66;1123;-23
2023/04/04 11:05:50;;;;;;;;;;;;;;;;;;2211560;59;2731;-23
2023/04/04 11:08:23;;;;;;;;;;;;;;;;;;2213540;58;2445;-23
2023/04/04 11:10:54;;;;;;;;;;;;;;;;;;2215532;59;1890;-23
2023/04/04 11:13:26;;;;;;;;;;;;;;;;;;2214221;58;2175;-23
2023/04/04 11:15:56;;;;;;;;;;;;;;;;;;2215292;58;2178;-23
2023/04/04 11:18:39;;;;;;;;;;;;;;;;;;2214079;59;2166;-23
2023/04/04 11:21:17;;;;;;;;;;;;;;;;;;2214607;59;1712;-23
2023/04/04 11:23:47;;;;;;;;;;;;;;;;;;2214300;59;2696;-23
2023/04/04 11:26:26;;;;;;;;;;;;;;;;;;2214157;66;2166;-23
2023/04/04 11:28:58;;;;;;;;;;;;;;;;;;2214789;66;2210;-23
2023/04/04 11:31:31;;;;;;;;;;;;;;;;;;2215654;66;1369;-23
2023/04/04 11:34:01;;;;;;;;;;;;;;;;;;2213121;59;2438;-23
2023/04/04 11:36:38;;;;;;;;;;;;;;;;;;2212088;59;2417;-23
2023/04/04 11:39:14;;;;;;;;;;;;;;;;;;2213370;59;2529;-23
2023/04/04 11:41:47;;;;;;;;;;;;;;;;;;2211474;59;1313;-23
2023/04/04 11:44:18;;;;;;;;;;;;;;;;;;2216050;58;2077;-23
2023/04/04 11:46:53;;;;;;;;;;;;;;;;;;2216101;66;2005;-23
2023/04/04 11:49:27;;;;;;;;;;;;;;;;;;2212520;59;2229;-23
2023/04/04 11:51:57;;;;;;;;;;;;;;;;;;2215848;59;1686;-23
2023/04/04 11:54:28;;;;;;;;;;;;;;;;;;2214843;59;2042;-23
2023/04/04 11:56:59;;;;;;;;;;;;;;;;;;2212317;59;1688;-23
2023/04/04 11:59:29;;;;;;;;;;;;;;;;;;2214722;58;2203;-24
2023/04/04 12:02:01;;;;;;;;;;;;;;;;;;2211494;66;1392;-23
2023/04/04 12:04:33;;;;;;;;;;;;;;;;;;2214554;58;2990;-23
2023/04/04 12:07:05;;;;;;;;;;;;;;;;;;2215208;66;1816;-23
2023/04/04 12:09:36;;;;;;;;;;;;;;;;;;2214818;58;2146;-23
2023/04/04 12:12:07;;;;;;;;;;;;;;;;;;2215252;58;1349;-23
2023/04/04 12:14:38;;;;;;;;;;;;;;;;;;2211478;59;2233;-23
2023/04/04 12:17:09;;;;;;;;;;;;;;;;;;2215068;66;1465;-23
2023/04/04 12:19:40;;;;;;;;;;;;;;;;;;2214937;58;2068;-23
2023/04/04 12:22:10;;;;;;;;;;;;;;;;;;2209703;58;2319;-23
2023/04/04 12:24:40;;;;;;;;;;;;;;;;;;2215285;58;2165;-23
2023/04/04 12:27:11;;;;;;;;;;;;;;;;;;2215600;58;1423;-23
2023/04/04 12:29:44;;;;;;;;;;;;;;;;;;2214411;59;2069;-23
2023/04/04 12:32:14;;;;;;;;;;;;;;;;;;2212185;59;2028;-23
2023/04/04 12:34:46;;;;;;;;;;;;;;;;;;2214509;58;2241;-23
2023/04/04 12:37:18;;;;;;;;;;;;;;;;;;2214246;66;2454;-23
2023/04/04 12:39:49;;;;;;;;;;;;;;;;;;2213423;59;2755;-23
2023/04/04 12:42:21;;;;;;;;;;;;;;;;;;2214997;58;2006;-23
2023/04/04 12:44:52;;;;;;;;;;;;;;;;;;2214592;59;2164;-23
2023/04/04 12:47:24;;;;;;;;;;;;;;;;;;2215042;66;1206;-23
2023/04/04 12:49:55;;;;;;;;;;;;;;;;;;2209777;58;2168;-23
2023/04/04 12:52:30;;;;;;;;;;;;;;;;;;2214659;66;1845;-24
2023/04/04 12:55:11;;;;;;;;;;;;;;;;;;2215044;58;2512;-23
2023/04/04 12:57:43;;;;;;;;;;;;;;;;;;2215482;58;1523;-23
2023/04/04 13:00:14;;;;;;;;;;;;;;;;;;2214625;59;2162;-23
2023/04/04 13:02:45;;;;;;;;;;;;;;;;;;2215205;66;2026;-23
2023/04/04 13:05:16;;;;;;;;;;;;;;;;;;2215101;59;2098;-23
2023/04/04 13:07:47;;;;;;;;;;;;;;;;;;2213379;58;3291;-23
2023/04/04 13:10:19;;;;;;;;;;;;;;;;;;2210164;59;2183;-23
2023/04/04 13:12:57;;;;;;;;;;;;;;;;;;2214561;66;1339;-23
2023/04/04 13:15:46;;;;;;;;;;;;;;;;;;2214185;59;2371;-23
2023/04/04 13:18:21;;;;;;;;;;;;;;;;;;2214109;59;1279;-23
2023/04/04 13:20:52;;;;;;;;;;;;;;;;;;2214024;59;2097;-23
2023/04/04 13:23:22;;;;;;;;;;;;;;;;;;2212182;58;2133;-23
2023/04/04 13:25:52;;;;;;;;;;;;;;;;;;2209972;59;2287;-23
2023/04/04 13:28:23;;;;;;;;;;;;;;;;;;2214358;66;1427;-23
2023/04/04 13:30:53;;;;;;;;;;;;;;;;;;2214761;58;1423;-23
2023/04/04 13:33:24;;;;;;;;;;;;;;;;;;2215003;66;1367;-23
2023/04/04 13:35:56;;;;;;;;;;;;;;;;;;2215865;58;1367;-23
2023/04/04 13:38:27;;;;;;;;;;;;;;;;;;2212395;66;1835;-23
2023/04/04 13:40:58;;;;;;;;;;;;;;;;;;2215066;58;2387;-23
2023/04/04 13:43:28;;;;;;;;;;;;;;;;;;2215021;58;2519;-23
2023/04/04 13:45:58;;;;;;;;;;;;;;;;;;2215799;66;1928;-23
2023/04/04 13:48:28;;;;;;;;;;;;;;;;;;2212466;66;1747;-23
2023/04/04 13:51:01;;;;;;;;;;;;;;;;;;2215741;58;1316;-23
2023/04/04 13:53:31;;;;;;;;;;;;;;;;;;2215793;66;1247;-23
2023/04/04 13:56:02;;;;;;;;;;;;;;;;;;2215596;59;1411;-23
2023/04/04 13:58:32;;;;;;;;;;;;;;;;;;2215089;59;1349;-23
2023/04/04 14:01:08;;;;;;;;;;;;;;;;;;2215110;66;2159;-23
2023/04/04 14:03:39;;;;;;;;;;;;;;;;;;2212729;66;1396;-23
2023/04/04 14:06:09;;;;;;;;;;;;;;;;;;2210333;66;1940;-23
2023/04/04 14:08:40;;;;;;;;;;;;;;;;;;2215468;66;1429;-23
2023/04/04 14:11:10;;;;;;;;;;;;;;;;;;2216096;58;1792;-23
2023/04/04 14:13:40;;;;;;;;;;;;;;;;;;2215367;66;1678;-23
2023/04/04 14:16:11;;;;;;;;;;;;;;;;;;2215777;66;1718;-23
2023/04/04 14:18:42;;;;;;;;;;;;;;;;;;2215808;66;1362;-23
2023/04/04 14:21:12;;;;;;;;;;;;;;;;;;2215537;66;1404;-23
2023/04/04 14:23:43;;;;;;;;;;;;;;;;;;2213339;59;1680;-23
2023/04/04 14:26:13;;;;;;;;;;;;;;;;;;2215507;66;2267;-23
2023/04/04 14:28:43;;;;;;;;;;;;;;;;;;2217032;66;2294;-23
2023/04/04 14:31:14;;;;;;;;;;;;;;;;;;2215788;66;1788;-23
2023/04/04 14:33:44;;;;;;;;;;;;;;;;;;2215873;66;1393;-23
2023/04/04 14:36:15;;;;;;;;;;;;;;;;;;2216094;59;1473;-23
2023/04/04 14:38:45;;;;;;;;;;;;;;;;;;2216890;66;1600;-23
2023/04/04 14:41:15;;;;;;;;;;;;;;;;;;2216719;58;1339;-23
2023/04/04 14:43:46;;;;;;;;;;;;;;;;;;2216493;66;1946;-23
2023/04/04 14:46:18;;;;;;;;;;;;;;;;;;2215724;58;1996;-23
2023/04/04 14:48:48;;;;;;;;;;;;;;;;;;2212489;66;1437;-23
2023/04/04 14:51:18;;;;;;;;;;;;;;;;;;2215069;58;2738;-23
2023/04/04 14:53:51;;;;;;;;;;;;;;;;;;2214727;58;2131;-23
2023/04/04 14:56:21;;;;;;;;;;;;;;;;;;2215633;58;1258;-23
2023/04/04 14:58:51;;;;;;;;;;;;;;;;;;2211904;59;1786;-23
2023/04/04 15:01:22;;;;;;;;;;;;;;;;;;2215771;66;1299;-23
2023/04/04 15:03:54;;;;;;;;;;;;;;;;;;2216361;66;1200;-23
2023/04/04 15:06:26;;;;;;;;;;;;;;;;;;2215350;66;2003;-23
2023/04/04 15:08:56;;;;;;;;;;;;;;;;;;2215325;59;2184;-23
2023/04/04 15:11:27;;;;;;;;;;;;;;;;;;2214448;58;2003;-23
2023/04/04 15:13:57;;;;;;;;;;;;;;;;;;2215712;66;1734;-23
2023/04/04 15:16:31;;;;;;;;;;;;;;;;;;2215022;59;1203;-23
2023/04/04 15:19:02;;;;;;;;;;;;;;;;;;2215112;66;1835;-23
2023/04/04 15:21:32;;;;;;;;;;;;;;;;;;2214946;66;1188;-23
2023/04/04 15:24:02;;;;;;;;;;;;;;;;;;2215549;66;1332;-23
2023/04/04 15:26:33;;;;;;;;;;;;;;;;;;2215074;66;1999;-23
2023/04/04 15:29:03;;;;;;;;;;;;;;;;;;2211719;66;1500;-23
2023/04/04 15:31:37;;;;;;;;;;;;;;;;;;2211825;59;1633;-23
2023/04/04 15:34:08;;;;;;;;;;;;;;;;;;2213287;66;1354;-23
2023/04/04 15:36:38;;;;;;;;;;;;;;;;;;2215866;59;1863;-23
2023/04/04 15:39:10;;;;;;;;;;;;;;;;;;2215245;66;1350;-23
2023/04/04 15:41:40;;;;;;;;;;;;;;;;;;2212629;58;1282;-23
2023/04/04 15:44:10;;;;;;;;;;;;;;;;;;2212697;66;1235;-23
2023/04/04 15:46:40;;;;;;;;;;;;;;;;;;2215372;66;1992;-23
2023/04/04 15:49:14;;;;;;;;;;;;;;;;;;2215932;58;2023;-23
2023/04/04 15:51:44;;;;;;;;;;;;;;;;;;2214941;66;1772;-23
2023/04/04 15:54:15;;;;;;;;;;;;;;;;;;2215056;58;1193;-23
2023/04/04 15:56:45;;;;;;;;;;;;;;;;;;2215275;66;1326;-23
2023/04/04 15:59:15;;;;;;;;;;;;;;;;;;2214997;66;1683;-23
2023/04/04 16:01:45;;;;;;;;;;;;;;;;;;2213273;66;1570;-23
2023/04/04 16:04:15;;;;;;;;;;;;;;;;;;2215549;66;1453;-23
2023/04/04 16:06:46;;;;;;;;;;;;;;;;;;2212469;66;1923;-23
2023/04/04 16:09:16;;;;;;;;;;;;;;;;;;2215119;58;1427;-23
2023/04/04 16:11:46;;;;;;;;;;;;;;;;;;2215385;66;1529;-23
2023/04/04 16:14:16;;;;;;;;;;;;;;;;;;2212696;66;1952;-23
2023/04/04 16:16:47;;;;;;;;;;;;;;;;;;2215587;66;1316;-23
2023/04/04 16:19:18;;;;;;;;;;;;;;;;;;2212107;66;1775;-23
2023/04/04 16:21:48;;;;;;;;;;;;;;;;;;2215880;66;1433;-23
2023/04/04 16:24:21;;;;;;;;;;;;;;;;;;2214828;66;1269;-24
2023/04/04 16:26:51;;;;;;;;;;;;;;;;;;2214734;66;2298;-23
2023/04/04 16:29:22;;;;;;;;;;;;;;;;;;2211051;59;2671;-23
2023/04/04 16:31:52;;;;;;;;;;;;;;;;;;2215392;66;2163;-23
2023/04/04 16:34:23;;;;;;;;;;;;;;;;;;2212804;66;2170;-22
2023/04/04 16:36:53;;;;;;;;;;;;;;;;;;2212197;59;2081;-23
2023/04/04 16:39:23;;;;;;;;;;;;;;;;;;2214992;59;1154;-24
2023/04/04 16:41:53;;;;;;;;;;;;;;;;;;2214821;58;2096;-24
2023/04/04 16:44:24;;;;;;;;;;;;;;;;;;2212787;58;2753;-24
2023/04/04 16:46:54;;;;;;;;;;;;;;;;;;2214263;59;2021;-24
2023/04/04 16:49:25;;;;;;;;;;;;;;;;;;2211384;59;2163;-24
2023/04/04 16:51:55;;;;;;;;;;;;;;;;;;2214855;63;2168;-24
2023/04/04 16:54:25;;;;;;;;;;;;;;;;;;2214775;58;2264;-24
2023/04/04 16:56:56;;;;;;;;;;;;;;;;;;2215532;59;1986;-24
2023/04/04 16:59:26;;;;;;;;;;;;;;;;;;2211851;59;2413;-24
2023/04/04 17:01:56;;;;;;;;;;;;;;;;;;2215558;66;1430;-24
2023/04/04 17:04:27;;;;;;;;;;;;;;;;;;2212324;59;2020;-24
2023/04/04 17:06:57;;;;;;;;;;;;;;;;;;2212811;59;1990;-24
2023/04/04 17:09:27;;;;;;;;;;;;;;;;;;2215210;59;2175;-25
2023/04/04 17:11:57;;;;;;;;;;;;;;;;;;2213803;66;1373;-25
2023/04/04 17:14:30;;;;;;;;;;;;;;;;;;2215570;63;2279;-25
2023/04/04 17:17:00;;;;;;;;;;;;;;;;;;2215779;66;1423;-25
2023/04/04 17:19:31;;;;;;;;;;;;;;;;;;2211899;59;1921;-25
2023/04/04 17:22:02;;;;;;;;;;;;;;;;;;2214639;59;2347;-25
2023/04/04 17:24:32;;;;;;;;;;;;;;;;;;2215375;59;2256;-25
2023/04/04 17:27:02;;;;;;;;;;;;;;;;;;2215527;66;1933;-25
2023/04/04 17:29:32;;;;;;;;;;;;;;;;;;2212185;58;2158;-25